createdAt,value
2023-05-18T00:00:17.095Z,102629.09
2023-05-18T00:01:19.720Z,102621.25
2023-05-18T00:02:21.732Z,102621.25
2023-05-18T00:03:23.820Z,102627.41
2023-05-18T00:04:26.081Z,102625.69
2023-05-18T00:05:34.515Z,102619.63
2023-05-18T00:06:36.364Z,102618.78
2023-05-18T00:07:37.990Z,102626.63
2023-05-18T00:08:39.983Z,102617.88
2023-05-18T00:09:41.711Z,102612.63
2023-05-18T00:10:43.455Z,102616.13
2023-05-18T00:11:45.076Z,102628.31
2023-05-18T00:12:47.624Z,102622.25
2023-05-18T00:13:49.527Z,102619.66
2023-05-18T00:14:51.111Z,102624.03
2023-05-18T00:15:52.831Z,102618.84
2023-05-18T00:16:54.781Z,102628.47
2023-05-18T00:17:57.111Z,102628.44
2023-05-18T00:18:59.625Z,102625.84
2023-05-18T00:20:01.776Z,102631.09
2023-05-18T00:21:03.748Z,102631.06
2023-05-18T00:22:07.884Z,102624.91
2023-05-18T00:23:16.210Z,102632.69
2023-05-18T00:24:18.560Z,102626.56
2023-05-18T00:25:20.599Z,102631.72
2023-05-18T00:26:22.270Z,102627.38
2023-05-18T00:27:26.163Z,102636.94
2023-05-18T00:28:29.525Z,102636.06
2023-05-18T00:29:31.193Z,102635.22
2023-05-18T00:30:32.932Z,102634.41
2023-05-18T00:31:36.512Z,102635.22
2023-05-18T00:32:38.278Z,102634.31
2023-05-18T00:33:40.574Z,102629.09
2023-05-18T00:34:42.250Z,102633.47
2023-05-18T00:35:43.966Z,102637.84
2023-05-18T00:36:45.601Z,102636.94
2023-05-18T00:37:47.288Z,102632.66
2023-05-18T00:38:49.100Z,102637.03
2023-05-18T00:39:51.004Z,102641.38
2023-05-18T00:40:52.783Z,102631.88
2023-05-18T00:41:54.486Z,102637.94
2023-05-18T00:42:56.350Z,102634.50
2023-05-18T00:43:59.097Z,102633.63
2023-05-18T00:45:01.175Z,102634.47
2023-05-18T00:46:02.816Z,102636.19
2023-05-18T00:47:04.713Z,102639.69
2023-05-18T00:48:07.314Z,102634.47
2023-05-18T00:49:09.185Z,102634.47
2023-05-18T00:50:11.046Z,102630.13
2023-05-18T00:51:12.970Z,102638.84
2023-05-18T00:52:15.948Z,102638.88
2023-05-18T00:53:17.631Z,102637.13
2023-05-18T00:54:20.065Z,102639.72
2023-05-18T00:55:22.629Z,102637.13
2023-05-18T00:56:25.032Z,102635.41
2023-05-18T00:57:26.868Z,102631.09
2023-05-18T00:58:28.950Z,102639.78
2023-05-18T00:59:32.795Z,102640.72
2023-05-18T01:00:37.626Z,102638.09
2023-05-18T01:01:44.009Z,102645.03
2023-05-18T01:02:46.366Z,102642.41
2023-05-18T01:03:48.075Z,102640.72
2023-05-18T01:04:52.844Z,102647.59
2023-05-18T01:05:58.055Z,102647.56
2023-05-18T01:07:06.612Z,102644.06
2023-05-18T01:08:10.051Z,102656.22
2023-05-18T01:09:13.726Z,102650.13
2023-05-18T01:10:18.551Z,102647.53
2023-05-18T01:11:39.834Z,102645.78
2023-05-18T01:12:43.806Z,102641.38
2023-05-18T01:13:56.056Z,102648.38
2023-05-18T01:15:11.972Z,102646.59
2023-05-18T01:16:21.752Z,102647.50
2023-05-18T01:17:53.727Z,102648.38
2023-05-18T01:19:24.235Z,102653.63
2023-05-18T01:20:34.096Z,102648.38
2023-05-18T01:21:43.198Z,102643.19
2023-05-18T01:23:05.984Z,102647.56
2023-05-18T01:24:25.760Z,102654.53
2023-05-18T01:25:54.927Z,102650.19
2023-05-18T01:27:00.744Z,102648.41
2023-05-18T01:28:08.731Z,102645.81
2023-05-18T01:29:13.772Z,102649.31
2023-05-18T01:30:19.534Z,102654.50
2023-05-18T01:31:21.457Z,102654.50
2023-05-18T01:32:23.385Z,102658.81
2023-05-18T01:33:25.749Z,102650.13
2023-05-18T01:34:27.601Z,102645.78
2023-05-18T01:35:29.771Z,102648.38
2023-05-18T01:36:32.804Z,102652.75
2023-05-18T01:37:34.598Z,102649.22
2023-05-18T01:38:37.072Z,102648.38
2023-05-18T01:39:39.378Z,102650.94
2023-05-18T01:41:12.715Z,102660.53
2023-05-18T01:42:21.487Z,102653.53
2023-05-18T01:43:31.876Z,102661.31
2023-05-18T01:44:50.854Z,102663.91
2023-05-18T01:45:56.755Z,102658.66
2023-05-18T01:47:08.040Z,102657.72
2023-05-18T01:48:12.109Z,102657.69
2023-05-18T01:49:30.421Z,102657.66
2023-05-18T01:50:39.706Z,102656.72
2023-05-18T01:51:45.532Z,102660.13
2023-05-18T01:52:58.348Z,102659.22
2023-05-18T01:54:06.196Z,102658.34
2023-05-18T01:55:09.940Z,102653.94
2023-05-18T01:56:13.981Z,102655.59
2023-05-18T01:57:17.623Z,102658.19
2023-05-18T01:58:22.114Z,102665.97
2023-05-18T01:59:25.484Z,102661.56
2023-05-18T02:00:27.617Z,102665.00
2023-05-18T02:01:29.672Z,102663.28
2023-05-18T02:02:31.655Z,102660.63
2023-05-18T02:03:33.576Z,102664.91
2023-05-18T02:04:35.640Z,102662.28
2023-05-18T02:05:37.338Z,102663.13
2023-05-18T02:06:39.126Z,102660.44
2023-05-18T02:07:44.138Z,102656.06
2023-05-18T02:08:46.086Z,102666.47
2023-05-18T02:09:47.989Z,102657.72
2023-05-18T02:10:49.965Z,102668.09
2023-05-18T02:11:51.574Z,102667.19
2023-05-18T02:12:53.920Z,102668.91
2023-05-18T02:13:55.736Z,102666.28
2023-05-18T02:14:58.514Z,102663.59
2023-05-18T02:16:00.411Z,102661.88
2023-05-18T02:17:02.205Z,102666.97
2023-05-18T02:18:04.439Z,102665.28
2023-05-18T02:19:07.160Z,102666.91
2023-05-18T02:20:10.062Z,102670.41
2023-05-18T02:21:13.788Z,102667.78
2023-05-18T02:22:15.544Z,102663.41
2023-05-18T02:23:17.724Z,102667.69
2023-05-18T02:24:19.917Z,102662.44
2023-05-18T02:25:21.735Z,102658.06
2023-05-18T02:26:23.522Z,102658.94
2023-05-18T02:27:28.097Z,102671.91
2023-05-18T02:28:29.781Z,102664.91
2023-05-18T02:29:31.351Z,102670.94
2023-05-18T02:30:34.476Z,102669.16
2023-05-18T02:31:36.793Z,102675.25
2023-05-18T02:32:39.092Z,102673.44
2023-05-18T02:33:41.341Z,102681.22
2023-05-18T02:34:43.402Z,102673.34
2023-05-18T02:35:45.808Z,102672.44
2023-05-18T02:36:48.705Z,102664.59
2023-05-18T02:37:50.415Z,102672.41
2023-05-18T02:38:52.166Z,102677.41
2023-05-18T02:39:54.014Z,102671.31
2023-05-18T02:40:55.711Z,102670.41
2023-05-18T02:41:57.434Z,102676.47
2023-05-18T02:42:59.374Z,102674.72
2023-05-18T02:44:02.887Z,102674.69
2023-05-18T02:45:05.516Z,102673.81
2023-05-18T02:46:07.975Z,102673.81
2023-05-18T02:47:09.968Z,102669.47
2023-05-18T02:48:11.703Z,102668.63
2023-05-18T02:49:13.554Z,102666.03
2023-05-18T02:50:16.191Z,102663.47
2023-05-18T02:51:19.609Z,102675.63
2023-05-18T02:52:22.528Z,102674.72
2023-05-18T02:53:25.040Z,102676.47
2023-05-18T02:54:27.573Z,102674.69
2023-05-18T02:55:29.515Z,102672.09
2023-05-18T02:56:41.774Z,102670.28
2023-05-18T02:58:16.109Z,102678.09
2023-05-18T02:59:31.880Z,102671.13
2023-05-18T03:00:33.776Z,102672.88
2023-05-18T03:01:37.328Z,102671.19
2023-05-18T03:02:40.282Z,102670.31
2023-05-18T03:03:42.382Z,102672.06
2023-05-18T03:04:44.441Z,102679.00
2023-05-18T03:05:45.983Z,102665.06
2023-05-18T03:06:52.825Z,102672.88
2023-05-18T03:07:55.686Z,102672.84
2023-05-18T03:08:57.735Z,102665.88
2023-05-18T03:10:07.852Z,102672.81
2023-05-18T03:11:09.777Z,102670.19
2023-05-18T03:12:11.438Z,102673.66
2023-05-18T03:13:13.315Z,102678.88
2023-05-18T03:14:15.008Z,102672.75
2023-05-18T03:15:18.611Z,102679.66
2023-05-18T03:16:20.312Z,102679.66
2023-05-18T03:17:22.671Z,102671.84
2023-05-18T03:18:25.681Z,102677.09
2023-05-18T03:19:29.061Z,102677.09
2023-05-18T03:20:31.797Z,102674.44
2023-05-18T03:21:36.076Z,102684.88
2023-05-18T03:22:38.398Z,102684.88
2023-05-18T03:23:40.541Z,102680.56
2023-05-18T03:24:43.202Z,102684.03
2023-05-18T03:25:53.904Z,102676.22
2023-05-18T03:26:57.566Z,102684.91
2023-05-18T03:28:00.209Z,102689.28
2023-05-18T03:29:02.606Z,102691.00
2023-05-18T03:30:04.592Z,102685.81
2023-05-18T03:31:06.643Z,102686.63
2023-05-18T03:32:08.589Z,102682.22
2023-05-18T03:33:12.172Z,102682.19
2023-05-18T03:34:14.117Z,102685.63
2023-05-18T03:35:16.463Z,102688.19
2023-05-18T03:36:18.130Z,102689.94
2023-05-18T03:37:20.512Z,102686.50
2023-05-18T03:38:22.288Z,102691.75
2023-05-18T03:39:31.549Z,102683.13
2023-05-18T03:40:33.561Z,102688.34
2023-05-18T03:41:35.221Z,102690.97
2023-05-18T03:42:37.891Z,102687.56
2023-05-18T03:43:39.771Z,102686.72
2023-05-18T03:44:42.498Z,102682.44
2023-05-18T03:45:44.501Z,102690.31
2023-05-18T03:46:47.052Z,102686.88
2023-05-18T03:47:49.509Z,102696.50
2023-05-18T03:48:51.368Z,102695.63
2023-05-18T03:49:56.669Z,102697.38
2023-05-18T03:50:59.043Z,102696.50
2023-05-18T03:52:05.082Z,102698.22
2023-05-18T03:53:07.672Z,102701.69
2023-05-18T03:54:10.599Z,102696.47
2023-05-18T03:55:12.360Z,102695.56
2023-05-18T03:56:14.241Z,102699.97
2023-05-18T03:57:17.507Z,102693.94
2023-05-18T03:58:22.517Z,102692.25
2023-05-18T03:59:24.219Z,102694.88
2023-05-18T04:00:25.930Z,102693.25
2023-05-18T04:01:30.237Z,102691.50
2023-05-18T04:02:32.544Z,102694.19
2023-05-18T04:03:35.058Z,102689.03
2023-05-18T04:04:36.862Z,102692.53
2023-05-18T04:05:39.728Z,102698.63
2023-05-18T04:06:41.547Z,102698.69
2023-05-18T04:07:46.610Z,102704.78
2023-05-18T04:08:48.726Z,102696.94
2023-05-18T04:09:52.125Z,102695.19
2023-05-18T04:10:54.561Z,102697.78
2023-05-18T04:11:56.181Z,102701.34
2023-05-18T04:12:58.419Z,102697.00
2023-05-18T04:14:01.026Z,102701.41
2023-05-18T04:15:03.951Z,102704.91
2023-05-18T04:16:06.061Z,102704.13
2023-05-18T04:17:08.395Z,102704.97
2023-05-18T04:18:11.288Z,102706.66
2023-05-18T04:19:13.808Z,102707.53
2023-05-18T04:20:15.549Z,102710.09
2023-05-18T04:21:17.458Z,102711.88
2023-05-18T04:22:20.211Z,102704.91
2023-05-18T04:23:22.684Z,102705.84
2023-05-18T04:24:26.367Z,102712.81
2023-05-18T04:25:28.425Z,102714.59
2023-05-18T04:26:30.559Z,102717.25
2023-05-18T04:27:32.177Z,102717.34
2023-05-18T04:28:33.889Z,102721.78
2023-05-18T04:29:39.171Z,102721.88
2023-05-18T04:30:41.018Z,102715.81
2023-05-18T04:31:44.719Z,102719.34
2023-05-18T04:32:47.084Z,102716.75
2023-05-18T04:33:51.321Z,102721.13
2023-05-18T04:34:52.952Z,102721.13
2023-05-18T04:35:59.692Z,102727.25
2023-05-18T04:37:03.123Z,102730.78
2023-05-18T04:38:05.472Z,102729.09
2023-05-18T04:39:07.935Z,102728.25
2023-05-18T04:40:14.028Z,102730.09
2023-05-18T04:41:20.551Z,102730.97
2023-05-18T04:42:22.862Z,102726.72
2023-05-18T04:43:26.129Z,102732.84
2023-05-18T04:44:29.002Z,102734.66
2023-05-18T04:45:34.240Z,102737.28
2023-05-18T04:46:39.744Z,102733.00
2023-05-18T04:47:48.576Z,102733.91
2023-05-18T04:48:50.242Z,102738.31
2023-05-18T04:49:55.723Z,102737.50
2023-05-18T04:50:57.621Z,102734.06
2023-05-18T04:51:59.898Z,102736.75
2023-05-18T04:53:02.386Z,102739.41
2023-05-18T04:54:06.250Z,102732.53
2023-05-18T04:55:10.852Z,102740.41
2023-05-18T04:56:13.901Z,102737.00
2023-05-18T04:57:15.809Z,102731.81
2023-05-18T04:58:17.554Z,102741.44
2023-05-18T04:59:19.707Z,102743.22
2023-05-18T05:00:21.412Z,102738.03
2023-05-18T05:01:23.891Z,102735.47
2023-05-18T05:02:25.772Z,102737.28
2023-05-18T05:03:27.637Z,102735.56
2023-05-18T05:04:29.742Z,102739.09
2023-05-18T05:05:31.661Z,102740.03
2023-05-18T05:06:33.686Z,102741.78
2023-05-18T05:07:35.362Z,102741.84
2023-05-18T05:08:38.549Z,102739.28
2023-05-18T05:09:40.184Z,102739.34
2023-05-18T05:10:41.823Z,102746.34
2023-05-18T05:11:43.983Z,102738.53
2023-05-18T05:12:47.898Z,102742.94
2023-05-18T05:13:51.146Z,102745.56
2023-05-18T05:14:52.766Z,102742.16
2023-05-18T05:15:55.647Z,102747.44
2023-05-18T05:16:57.450Z,102745.75
2023-05-18T05:17:59.073Z,102749.25
2023-05-18T05:19:00.943Z,102751.91
2023-05-18T05:20:02.699Z,102749.31
2023-05-18T05:21:04.895Z,102745.00
2023-05-18T05:22:06.928Z,102750.25
2023-05-18T05:23:08.787Z,102755.53
2023-05-18T05:24:13.532Z,102749.47
2023-05-18T05:25:15.791Z,102753.03
2023-05-18T05:26:17.915Z,102747.81
2023-05-18T05:27:20.652Z,102751.34
2023-05-18T05:28:22.398Z,102748.78
2023-05-18T05:29:26.407Z,102753.19
2023-05-18T05:30:28.889Z,102754.09
2023-05-18T05:31:30.697Z,102755.84
2023-05-18T05:32:32.606Z,102756.78
2023-05-18T05:33:35.294Z,102762.91
2023-05-18T05:34:37.649Z,102759.47
2023-05-18T05:35:40.218Z,102762.09
2023-05-18T05:36:41.896Z,102756.84
2023-05-18T05:37:45.703Z,102765.66
2023-05-18T05:38:47.630Z,102765.66
2023-05-18T05:39:49.547Z,102762.22
2023-05-18T05:40:52.947Z,102767.50
2023-05-18T05:41:55.618Z,102774.53
2023-05-18T05:42:57.791Z,102770.19
2023-05-18T05:43:59.633Z,102780.69
2023-05-18T05:45:01.747Z,102767.59
2023-05-18T05:46:04.589Z,102771.13
2023-05-18T05:47:07.105Z,102776.38
2023-05-18T05:48:11.176Z,102778.16
2023-05-18T05:49:15.593Z,102781.63
2023-05-18T05:50:17.404Z,102775.47
2023-05-18T05:51:21.342Z,102776.38
2023-05-18T05:52:23.344Z,102777.28
2023-05-18T05:53:26.179Z,102776.44
2023-05-18T05:54:27.986Z,102771.25
2023-05-18T05:55:30.174Z,102780.06
2023-05-18T05:56:32.007Z,102778.34
2023-05-18T05:57:33.750Z,102783.66
2023-05-18T05:58:35.441Z,102780.19
2023-05-18T05:59:37.341Z,102781.13
2023-05-18T06:00:39.924Z,102775.06
2023-05-18T06:01:41.548Z,102779.47
2023-05-18T06:02:43.717Z,102782.97
2023-05-18T06:03:45.582Z,102787.31
2023-05-18T06:04:48.473Z,102778.66
2023-05-18T06:05:50.289Z,102779.53
2023-05-18T06:06:54.846Z,102785.66
2023-05-18T06:07:57.555Z,102783.13
2023-05-18T06:08:59.674Z,102790.09
2023-05-18T06:10:01.929Z,102794.50
2023-05-18T06:11:04.680Z,102784.06
2023-05-18T06:12:07.508Z,102791.09
2023-05-18T06:13:09.707Z,102788.50
2023-05-18T06:14:26.017Z,102785.91
2023-05-18T06:15:28.856Z,102790.31
2023-05-18T06:16:30.892Z,102799.00
2023-05-18T06:17:33.729Z,102795.50
2023-05-18T06:18:37.535Z,102802.53
2023-05-18T06:19:40.478Z,102796.47
2023-05-18T06:20:42.175Z,102800.88
2023-05-18T06:21:43.987Z,102800.84
2023-05-18T06:22:47.310Z,102806.13
2023-05-18T06:24:05.220Z,102799.13
2023-05-18T06:25:10.754Z,102799.19
2023-05-18T06:26:37.809Z,102800.97
2023-05-18T06:28:09.048Z,102801.88
2023-05-18T06:29:15.502Z,102810.63
2023-05-18T06:30:41.985Z,102802.78
2023-05-18T06:32:07.701Z,102806.28
2023-05-18T06:33:27.182Z,102805.41
2023-05-18T06:34:29.147Z,102803.63
2023-05-18T06:35:31.214Z,102807.06
2023-05-18T06:36:32.995Z,102797.50
2023-05-18T06:37:34.745Z,102806.22
2023-05-18T06:38:36.399Z,102808.81
2023-05-18T06:39:38.675Z,102796.63
2023-05-18T06:40:40.577Z,102800.16
2023-05-18T06:41:42.315Z,102807.19
2023-05-18T06:42:44.058Z,102810.69
2023-05-18T06:44:14.615Z,102809.00
2023-05-18T06:45:37.308Z,102811.66
2023-05-18T06:46:59.744Z,102811.69
2023-05-18T06:48:04.474Z,102813.47
2023-05-18T06:49:06.973Z,102811.75
2023-05-18T06:50:09.795Z,102807.50
2023-05-18T06:51:11.430Z,102817.16
2023-05-18T06:52:13.692Z,102817.22
2023-05-18T06:53:16.851Z,102821.63
2023-05-18T06:54:20.697Z,102821.66
2023-05-18T06:55:22.867Z,102821.69
2023-05-18T06:56:25.774Z,102815.59
2023-05-18T06:57:27.787Z,102825.28
2023-05-18T06:58:29.656Z,102818.34
2023-05-18T06:59:34.831Z,102818.25
2023-05-18T07:00:37.696Z,102817.47
2023-05-18T07:01:40.062Z,102817.53
2023-05-18T07:02:44.573Z,102820.94
2023-05-18T07:03:46.975Z,102815.69
2023-05-18T07:04:49.784Z,102812.25
2023-05-18T07:05:51.833Z,102814.97
2023-05-18T07:06:55.865Z,102808.97
2023-05-18T07:07:58.210Z,102807.31
2023-05-18T07:09:00.261Z,102811.72
2023-05-18T07:10:04.437Z,102812.59
2023-05-18T07:11:06.577Z,102809.16
2023-05-18T07:12:08.782Z,102806.56
2023-05-18T07:13:10.428Z,102807.50
2023-05-18T07:14:12.475Z,102802.28
2023-05-18T07:15:14.515Z,102799.72
2023-05-18T07:16:16.411Z,102805.03
2023-05-18T07:17:18.610Z,102809.34
2023-05-18T07:18:20.345Z,102806.75
2023-05-18T07:19:22.086Z,102807.69
2023-05-18T07:20:26.213Z,102812.09
2023-05-18T07:21:29.088Z,102807.75
2023-05-18T07:22:30.680Z,102804.31
2023-05-18T07:23:32.658Z,102804.34
2023-05-18T07:24:34.740Z,102800.03
2023-05-18T07:25:36.516Z,102808.84
2023-05-18T07:26:38.320Z,102800.16
2023-05-18T07:27:39.999Z,102804.59
2023-05-18T07:28:41.618Z,102809.00
2023-05-18T07:29:43.679Z,102810.81
2023-05-18T07:30:45.418Z,102810.84
2023-05-18T07:31:47.095Z,102809.16
2023-05-18T07:32:49.502Z,102812.66
2023-05-18T07:33:51.343Z,102810.88
2023-05-18T07:34:53.624Z,102813.47
2023-05-18T07:35:55.717Z,102814.28
2023-05-18T07:36:57.751Z,102814.28
2023-05-18T07:38:01.968Z,102809.97
2023-05-18T07:39:04.682Z,102811.72
2023-05-18T07:40:07.143Z,102810.88
2023-05-18T07:41:09.016Z,102812.59
2023-05-18T07:42:11.312Z,102811.78
2023-05-18T07:43:13.003Z,102813.56
2023-05-18T07:44:15.680Z,102817.13
2023-05-18T07:45:17.378Z,102813.66
2023-05-18T07:46:19.173Z,102816.34
2023-05-18T07:47:21.592Z,102805.88
2023-05-18T07:48:23.876Z,102815.53
2023-05-18T07:49:25.974Z,102813.81
2023-05-18T07:50:29.517Z,102816.47
2023-05-18T07:51:31.628Z,102821.72
2023-05-18T07:52:33.607Z,102815.56
2023-05-18T07:53:36.018Z,102819.06
2023-05-18T07:54:37.801Z,102814.72
2023-05-18T07:55:42.030Z,102821.66
2023-05-18T07:56:44.293Z,102819.88
2023-05-18T07:57:45.923Z,102822.50
2023-05-18T07:58:47.798Z,102821.66
2023-05-18T07:59:49.590Z,102819.00
2023-05-18T08:00:51.565Z,102823.31
2023-05-18T08:01:53.358Z,102820.69
2023-05-18T08:02:55.338Z,102825.06
2023-05-18T08:03:57.192Z,102819.88
2023-05-18T08:04:59.276Z,102818.19
2023-05-18T08:06:01.018Z,102823.44
2023-05-18T08:07:03.402Z,102821.78
2023-05-18T08:08:07.031Z,102819.25
2023-05-18T08:09:09.013Z,102817.56
2023-05-18T08:10:11.699Z,102815.84
2023-05-18T08:11:16.262Z,102814.19
2023-05-18T08:12:17.878Z,102820.41
2023-05-18T08:13:20.530Z,102814.34
2023-05-18T08:14:22.160Z,102817.88
2023-05-18T08:15:24.212Z,102817.06
2023-05-18T08:16:25.922Z,102813.59
2023-05-18T08:17:27.767Z,102809.22
2023-05-18T08:18:29.638Z,102815.41
2023-05-18T08:19:31.629Z,102807.53
2023-05-18T08:20:33.692Z,102812.78
2023-05-18T08:21:35.310Z,102816.31
2023-05-18T08:22:36.952Z,102812.78
2023-05-18T08:23:40.154Z,102818.94
2023-05-18T08:24:41.790Z,102814.56
2023-05-18T08:25:43.794Z,102812.78
2023-05-18T08:26:45.742Z,102812.78
2023-05-18T08:27:47.388Z,102819.78
2023-05-18T08:28:51.033Z,102811.00
2023-05-18T08:29:52.632Z,102816.25
2023-05-18T08:30:54.486Z,102816.25
2023-05-18T08:31:56.432Z,102813.63
2023-05-18T08:32:58.732Z,102815.34
2023-05-18T08:34:00.749Z,102811.88
2023-05-18T08:35:04.598Z,102809.31
2023-05-18T08:36:06.486Z,102813.72
2023-05-18T08:37:08.254Z,102814.63
2023-05-18T08:38:09.967Z,102812.06
2023-05-18T08:39:12.652Z,102808.56
2023-05-18T08:40:14.722Z,102804.19
2023-05-18T08:41:22.590Z,102810.34
2023-05-18T08:42:56.692Z,102806.84
2023-05-18T08:44:12.468Z,102809.44
2023-05-18T08:45:22.344Z,102801.59
2023-05-18T08:46:33.572Z,102805.09
2023-05-18T08:47:37.491Z,102806.88
2023-05-18T08:48:41.180Z,102807.78
2023-05-18T08:49:46.061Z,102807.78
2023-05-18T08:50:49.708Z,102805.19
2023-05-18T08:52:00.657Z,102800.78
2023-05-18T08:53:06.016Z,102797.25
2023-05-18T08:54:10.727Z,102802.56
2023-05-18T08:55:13.516Z,102799.06
2023-05-18T08:56:15.679Z,102799.94
2023-05-18T08:57:20.607Z,102796.44
2023-05-18T08:58:32.768Z,102800.78
2023-05-18T08:59:39.828Z,102807.81
2023-05-18T09:00:41.623Z,102800.81
2023-05-18T09:01:43.728Z,102801.69
2023-05-18T09:02:47.623Z,102798.19
2023-05-18T09:03:50.531Z,102803.44
2023-05-18T09:04:53.541Z,102800.78
2023-05-18T09:05:57.030Z,102803.41
2023-05-18T09:07:02.528Z,102800.78
2023-05-18T09:08:06.518Z,102802.53
2023-05-18T09:09:10.688Z,102802.53
2023-05-18T09:10:16.069Z,102806.06
2023-05-18T09:11:22.233Z,102804.31
2023-05-18T09:12:25.731Z,102806.09
2023-05-18T09:13:27.977Z,102803.47
2023-05-18T09:14:34.570Z,102802.59
2023-05-18T09:15:36.229Z,102806.09
2023-05-18T09:16:37.968Z,102805.22
2023-05-18T09:17:40.430Z,102804.34
2023-05-18T09:18:42.458Z,102807.84
2023-05-18T09:19:44.206Z,102799.97
2023-05-18T09:20:45.853Z,102803.47
2023-05-18T09:21:47.730Z,102806.19
2023-05-18T09:22:51.418Z,102803.53
2023-05-18T09:23:53.487Z,102797.41
2023-05-18T09:24:55.568Z,102802.66
2023-05-18T09:25:59.560Z,102799.16
2023-05-18T09:27:01.469Z,102801.78
2023-05-18T09:28:05.102Z,102799.16
2023-05-18T09:29:18.559Z,102804.44
2023-05-18T09:30:20.316Z,102801.78
2023-05-18T09:31:24.866Z,102804.44
2023-05-18T09:32:26.650Z,102800.91
2023-05-18T09:33:34.197Z,102799.16
2023-05-18T09:34:42.857Z,102794.75
2023-05-18T09:35:48.111Z,102790.38
2023-05-18T09:36:52.780Z,102789.50
2023-05-18T09:37:54.809Z,102794.75
2023-05-18T09:38:56.492Z,102790.38
2023-05-18T09:40:00.412Z,102790.38
2023-05-18T09:41:02.233Z,102786.84
2023-05-18T09:42:05.142Z,102787.75
2023-05-18T09:43:07.478Z,102785.09
2023-05-18T09:44:09.859Z,102785.06
2023-05-18T09:45:24.338Z,102779.78
2023-05-18T09:46:32.064Z,102776.25
2023-05-18T09:47:34.526Z,102777.97
2023-05-18T09:48:40.954Z,102783.25
2023-05-18T09:49:42.811Z,102774.47
2023-05-18T09:50:45.371Z,102773.56
2023-05-18T09:51:47.807Z,102771.78
2023-05-18T09:52:50.311Z,102774.41
2023-05-18T09:53:56.775Z,102766.50
2023-05-18T09:55:02.229Z,102779.75
2023-05-18T09:56:06.791Z,102785.00
2023-05-18T09:57:11.257Z,102778.81
2023-05-18T09:58:13.771Z,102782.34
2023-05-18T09:59:16.198Z,102779.69
2023-05-18T10:00:20.533Z,102774.41
2023-05-18T10:01:23.824Z,102777.91
2023-05-18T10:02:25.865Z,102776.13
2023-05-18T10:03:33.277Z,102772.59
2023-05-18T10:04:40.111Z,102771.72
2023-05-18T10:05:42.437Z,102769.97
2023-05-18T10:06:49.611Z,102771.69
2023-05-18T10:07:51.701Z,102773.41
2023-05-18T10:08:53.763Z,102778.69
2023-05-18T10:10:02.505Z,102776.03
2023-05-18T10:11:04.495Z,102776.03
2023-05-18T10:12:14.434Z,102772.53
2023-05-18T10:13:19.898Z,102774.25
2023-05-18T10:14:29.180Z,102772.47
2023-05-18T10:15:33.596Z,102776.84
2023-05-18T10:16:35.327Z,102773.31
2023-05-18T10:17:40.312Z,102768.91
2023-05-18T10:18:42.678Z,102763.56
2023-05-18T10:19:45.197Z,102768.84
2023-05-18T10:20:48.487Z,102775.84
2023-05-18T10:21:51.444Z,102768.75
2023-05-18T10:22:55.449Z,102776.66
2023-05-18T10:23:58.862Z,102770.47
2023-05-18T10:25:02.461Z,102767.78
2023-05-18T10:26:06.336Z,102767.72
2023-05-18T10:27:09.850Z,102762.41
2023-05-18T10:28:12.224Z,102766.78
2023-05-18T10:29:15.055Z,102770.28
2023-05-18T10:30:20.183Z,102768.50
2023-05-18T10:31:23.500Z,102765.91
2023-05-18T10:32:26.145Z,102770.28
2023-05-18T10:33:30.623Z,102764.97
2023-05-18T10:34:36.900Z,102757.91
2023-05-18T10:35:39.240Z,102768.41
2023-05-18T10:36:42.742Z,102763.09
2023-05-18T10:37:50.163Z,102761.31
2023-05-18T10:38:52.191Z,102764.00
2023-05-18T10:39:55.957Z,102757.84
2023-05-18T10:41:00.343Z,102771.94
2023-05-18T10:42:03.544Z,102764.88
2023-05-18T10:43:06.481Z,102766.69
2023-05-18T10:44:08.505Z,102765.88
2023-05-18T10:45:10.693Z,102758.88
2023-05-18T10:46:13.921Z,102762.38
2023-05-18T10:47:15.659Z,102756.22
2023-05-18T10:48:19.550Z,102763.22
2023-05-18T10:49:26.315Z,102767.59
2023-05-18T10:50:28.684Z,102764.09
2023-05-18T10:51:32.175Z,102770.25
2023-05-18T10:52:37.352Z,102764.97
2023-05-18T10:53:43.778Z,102760.56
2023-05-18T10:54:46.373Z,102769.31
2023-05-18T10:55:49.054Z,102761.31
2023-05-18T10:56:53.847Z,102763.88
2023-05-18T10:58:16.575Z,102756.75
2023-05-18T10:59:20.293Z,102753.97
2023-05-18T11:00:22.413Z,102758.31
2023-05-18T11:01:24.513Z,102754.69
2023-05-18T11:02:29.870Z,102759.97
2023-05-18T11:03:33.582Z,102756.41
2023-05-18T11:04:35.926Z,102751.22
2023-05-18T11:05:39.864Z,102757.44
2023-05-18T11:06:41.696Z,102759.22
2023-05-18T11:07:45.315Z,102759.25
2023-05-18T11:08:48.978Z,102757.53
2023-05-18T11:09:50.838Z,102752.25
2023-05-18T11:11:04.656Z,102752.19
2023-05-18T11:12:12.350Z,102756.56
2023-05-18T11:13:15.209Z,102758.31
2023-05-18T11:14:26.321Z,102755.72
2023-05-18T11:15:55.627Z,102757.44
2023-05-18T11:17:20.900Z,102749.47
2023-05-18T11:18:43.829Z,102752.94
2023-05-18T11:20:13.080Z,102754.63
2023-05-18T11:21:24.584Z,102747.50
2023-05-18T11:22:49.288Z,102750.97
2023-05-18T11:24:20.028Z,102748.22
2023-05-18T11:25:24.639Z,102749.06
2023-05-18T11:26:29.063Z,102750.84
2023-05-18T11:27:32.815Z,102753.44
2023-05-18T11:28:43.006Z,102751.75
2023-05-18T11:29:46.813Z,102757.00
2023-05-18T11:30:50.332Z,102753.41
2023-05-18T11:31:54.693Z,102746.34
2023-05-18T11:33:08.829Z,102742.94
2023-05-18T11:34:45.051Z,102751.75
2023-05-18T11:35:58.617Z,102746.66
2023-05-18T11:37:00.524Z,102752.97
2023-05-18T11:38:08.605Z,102745.91
2023-05-18T11:39:11.816Z,102749.38
2023-05-18T11:40:52.522Z,102742.38
2023-05-18T11:42:10.818Z,102743.19
2023-05-18T11:43:25.433Z,102741.34
2023-05-18T11:44:31.522Z,102743.91
2023-05-18T11:45:33.943Z,102739.50
2023-05-18T11:46:36.902Z,102736.78
2023-05-18T11:47:42.652Z,102732.31
2023-05-18T11:48:44.976Z,102731.28
2023-05-18T11:49:48.562Z,102735.59
2023-05-18T11:50:56.054Z,102734.53
2023-05-18T11:52:05.399Z,102729.94
2023-05-18T11:53:07.508Z,102736.84
2023-05-18T11:54:09.257Z,102730.47
2023-05-18T11:55:15.035Z,102729.44
2023-05-18T11:56:17.535Z,102735.47
2023-05-18T11:57:52.921Z,102731.91
2023-05-18T11:59:14.740Z,102727.41
2023-05-18T12:00:17.430Z,102724.75
2023-05-18T12:01:19.170Z,102736.25
2023-05-18T12:02:24.051Z,102733.59
2023-05-18T12:03:26.567Z,102731.78
2023-05-18T12:04:29.584Z,102731.75
2023-05-18T12:05:31.740Z,102726.47
2023-05-18T12:06:34.086Z,102735.28
2023-05-18T12:07:36.803Z,102727.31
2023-05-18T12:08:43.872Z,102734.44
2023-05-18T12:09:47.631Z,102729.97
2023-05-18T12:10:49.625Z,102733.41
2023-05-18T12:11:51.614Z,102731.56
2023-05-18T12:12:53.780Z,102715.50
2023-05-18T12:13:57.039Z,102720.69
2023-05-18T12:15:06.849Z,102717.88